Terminal Aerodrome Forecast
Issued by NWS

Home | Current Version | Previous Version | Text Only | Print | Product List | Glossary On
Versions: 1 2 3 4 5 6 7 8 9 10 11 12 13 14 15 16
668
FTUS46 KEKA 061403 CCA
TAFUKI
TAF COR
KUKI 061403Z 0612/0712 33005KT P6SM BKN035
     FM061800 33005KT P6SM SKC
     FM070300 00000KT P6SM SKC=

USA.gov is the U.S. government's official web portal to all federal, state and local government web resources and services.